createdAt,value
2019-05-18T00:00:26.353Z,12.20
2019-05-18T00:02:55.660Z,11.88
2019-05-18T00:05:24.992Z,13.80
2019-05-18T00:07:54.320Z,13.55
2019-05-18T00:10:23.658Z,14.47
2019-05-18T00:12:52.997Z,14.98
2019-05-18T00:15:22.413Z,14.73
2019-05-18T00:17:51.729Z,15.15
2019-05-18T00:20:21.068Z,15.32
2019-05-18T00:22:50.420Z,14.93
2019-05-18T00:25:19.758Z,15.63
2019-05-18T00:27:49.205Z,15.75
2019-05-18T00:30:18.607Z,15.45
2019-05-18T00:32:47.914Z,15.30
2019-05-18T00:35:17.387Z,14.47
2019-05-18T00:37:46.728Z,16.75
2019-05-18T00:40:17.065Z,16.75
2019-05-18T00:42:46.451Z,18.20
2019-05-18T00:45:16.092Z,16.35
2019-05-18T00:47:45.431Z,17.35
2019-05-18T00:50:15.673Z,17.98
2019-05-18T00:52:45.006Z,18.32
2019-05-18T00:55:15.488Z,17.27
2019-05-18T00:57:44.814Z,16.27
2019-05-18T01:00:15.101Z,18.60
2019-05-18T01:02:44.489Z,19.30
2019-05-18T01:05:14.046Z,18.25
2019-05-18T01:07:43.360Z,19.45
2019-05-18T01:10:13.533Z,19.00
2019-05-18T01:12:42.876Z,17.17
2019-05-18T01:15:12.944Z,17.25
2019-05-18T01:17:56.367Z,16.15
2019-05-18T01:20:13.708Z,16.52
2019-05-18T01:22:43.074Z,16.85
2019-05-18T01:25:12.544Z,16.40
2019-05-18T01:27:41.888Z,17.45
2019-05-18T01:30:12.034Z,18.00
2019-05-18T01:32:41.379Z,19.05
2019-05-18T01:35:12.041Z,20.52
2019-05-18T01:40:10.146Z,20.23
2019-05-18T01:42:39.658Z,17.15
2019-05-18T01:45:16.774Z,20.62
2019-05-18T01:47:40.508Z,18.82
2019-05-18T01:50:10.143Z,17.80
2019-05-18T01:52:39.531Z,17.60
2019-05-18T01:55:09.501Z,16.82
2019-05-18T01:57:38.843Z,17.07
2019-05-18T02:00:09.521Z,15.95
2019-05-18T02:05:07.548Z,15.60
2019-05-18T02:07:36.857Z,15.20
2019-05-18T02:10:06.617Z,15.98
2019-05-18T02:12:36.016Z,17.02
2019-05-18T02:15:06.681Z,15.30
2019-05-18T02:20:05.262Z,15.55
2019-05-18T02:22:34.658Z,16.62
2019-05-18T02:25:08.806Z,18.60
2019-05-18T02:27:38.116Z,16.80
2019-05-18T02:30:08.709Z,16.87
2019-05-18T02:32:38.089Z,16.73
2019-05-18T02:35:08.084Z,16.10
2019-05-18T02:37:37.439Z,17.57
2019-05-18T02:40:07.929Z,16.30
2019-05-18T02:42:37.257Z,15.65
2019-05-18T02:45:08.086Z,17.92
2019-05-18T02:50:07.697Z,20.45
2019-05-18T02:52:37.088Z,17.50
2019-05-18T02:55:07.555Z,20.25
2019-05-18T02:57:36.940Z,20.82
2019-05-18T03:00:09.409Z,21.07
2019-05-18T03:02:39.914Z,22.77
2019-05-18T03:05:09.724Z,20.75
2019-05-18T03:07:39.123Z,21.30
2019-05-18T03:10:08.879Z,21.42
2019-05-18T03:12:38.290Z,20.43
2019-05-18T03:15:07.906Z,21.82
2019-05-18T03:17:37.337Z,19.95
2019-05-18T03:20:07.244Z,19.15
2019-05-18T03:22:36.693Z,18.77
2019-05-18T03:25:07.404Z,18.25
2019-05-18T03:30:09.391Z,16.15
2019-05-18T03:32:38.939Z,17.07
2019-05-18T03:35:08.817Z,17.52
2019-05-18T03:37:38.253Z,17.90
2019-05-18T03:40:07.784Z,17.77
2019-05-18T03:42:37.164Z,17.07
2019-05-18T03:45:07.123Z,19.45
2019-05-18T03:47:36.431Z,17.12
2019-05-18T03:50:09.177Z,16.45
2019-05-18T03:52:38.584Z,20.95
2019-05-18T03:55:08.227Z,16.30
2019-05-18T03:57:37.554Z,17.07
2019-05-18T04:00:09.856Z,15.78
2019-05-18T04:02:39.257Z,16.27
2019-05-18T04:05:09.732Z,14.28
2019-05-18T04:07:39.071Z,13.72
2019-05-18T04:10:09.525Z,14.50
2019-05-18T04:12:38.924Z,15.40
2019-05-18T04:15:09.932Z,15.00
2019-05-18T04:17:39.277Z,15.05
2019-05-18T04:20:09.989Z,15.50
2019-05-18T04:22:39.308Z,13.15
2019-05-18T04:25:08.886Z,12.90
2019-05-18T04:27:38.195Z,13.45
2019-05-18T04:30:08.472Z,13.15
2019-05-18T04:32:37.802Z,13.95
2019-05-18T04:35:07.869Z,13.60
2019-05-18T04:37:37.265Z,14.65
2019-05-18T04:40:07.653Z,13.90
2019-05-18T04:42:37.097Z,13.85
2019-05-18T04:45:08.954Z,15.30
2019-05-18T04:47:38.286Z,14.38
2019-05-18T04:50:08.235Z,14.30
2019-05-18T04:52:37.563Z,15.37
2019-05-18T04:55:07.253Z,15.58
2019-05-18T04:57:36.570Z,15.58
2019-05-18T05:00:07.934Z,16.23
2019-05-18T05:02:37.338Z,15.55
2019-05-18T05:05:06.947Z,16.77
2019-05-18T05:07:36.249Z,15.48
2019-05-18T05:10:07.212Z,14.78
2019-05-18T05:12:37.508Z,15.32
2019-05-18T05:15:07.491Z,15.38
2019-05-18T05:17:47.430Z,15.80
2019-05-18T05:20:20.044Z,14.30
2019-05-18T05:22:48.100Z,13.98
2019-05-18T05:25:17.445Z,14.33
2019-05-18T05:27:46.783Z,13.20
2019-05-18T05:30:17.409Z,12.65
2019-05-18T05:32:46.780Z,13.45
2019-05-18T05:35:16.225Z,13.83
2019-05-18T05:37:45.528Z,14.85
2019-05-18T05:40:16.605Z,13.78
2019-05-18T05:42:45.979Z,15.23
2019-05-18T05:45:15.482Z,13.98
2019-05-18T05:47:44.812Z,14.15
2019-05-18T05:50:14.504Z,13.93
2019-05-18T05:52:43.904Z,14.47
2019-05-18T05:55:13.947Z,14.83
2019-05-18T05:57:43.294Z,13.90
2019-05-18T06:00:15.272Z,12.63
2019-05-18T06:02:44.723Z,14.65
2019-05-18T06:05:14.608Z,14.73
2019-05-18T06:07:43.911Z,15.30
2019-05-18T06:10:13.897Z,14.73
2019-05-18T06:12:44.750Z,12.65
2019-05-18T06:15:14.239Z,12.70
2019-05-18T06:17:43.547Z,10.95
2019-05-18T06:20:13.136Z,11.28
2019-05-18T06:22:42.513Z,12.00
2019-05-18T06:25:12.271Z,12.20
2019-05-18T06:27:41.788Z,12.00
2019-05-18T06:30:11.561Z,12.33
2019-05-18T06:32:40.905Z,13.03
2019-05-18T06:35:10.493Z,12.25
2019-05-18T06:37:39.803Z,11.63
2019-05-18T06:40:09.855Z,11.45
2019-05-18T06:42:39.336Z,12.23
2019-05-18T06:45:09.427Z,11.95
2019-05-18T06:47:38.961Z,12.00
2019-05-18T06:50:12.478Z,11.73
2019-05-18T06:52:41.077Z,11.25
2019-05-18T06:55:12.282Z,11.60
2019-05-18T06:57:42.636Z,11.83
2019-05-18T07:00:15.038Z,11.78
2019-05-18T07:02:44.516Z,11.57
2019-05-18T07:05:14.022Z,10.88
2019-05-18T07:07:43.342Z,10.35
2019-05-18T07:10:12.799Z,10.28
2019-05-18T07:12:42.142Z,10.20
2019-05-18T07:15:12.115Z,10.78
2019-05-18T07:17:41.445Z,10.78
2019-05-18T07:20:11.109Z,9.68
2019-05-18T07:22:41.667Z,9.18
2019-05-18T07:25:11.422Z,8.90
2019-05-18T07:27:40.724Z,9.20
2019-05-18T07:30:10.923Z,9.05
2019-05-18T07:32:41.202Z,8.53
2019-05-18T07:35:11.112Z,8.35
2019-05-18T07:37:40.420Z,8.10
2019-05-18T07:40:10.609Z,6.72
2019-05-18T07:42:40.227Z,6.97
2019-05-18T07:45:09.901Z,7.40
2019-05-18T07:47:39.362Z,7.65
2019-05-18T07:50:09.226Z,8.13
2019-05-18T07:52:38.530Z,7.62
2019-05-18T07:55:09.971Z,8.38
2019-05-18T07:57:39.343Z,7.67
2019-05-18T08:00:10.055Z,8.18
2019-05-18T08:02:39.408Z,7.58
2019-05-18T08:05:10.283Z,7.35
2019-05-18T08:07:39.730Z,7.97
2019-05-18T08:10:09.595Z,8.63
2019-05-18T08:12:39.000Z,8.55
2019-05-18T08:15:10.554Z,8.00
2019-05-18T08:17:39.884Z,8.20
2019-05-18T08:20:09.458Z,7.50
2019-05-18T08:22:38.827Z,7.30
2019-05-18T08:25:09.981Z,7.25
2019-05-18T08:27:39.270Z,6.53
2019-05-18T08:30:10.160Z,7.12
2019-05-18T08:32:39.694Z,7.47
2019-05-18T08:35:09.481Z,7.47
2019-05-18T08:37:38.786Z,6.65
2019-05-18T08:40:08.936Z,6.80
2019-05-18T08:42:38.818Z,6.97
2019-05-18T08:45:09.783Z,7.10
2019-05-18T08:47:40.180Z,7.58
2019-05-18T08:50:09.828Z,7.20
2019-05-18T08:52:39.193Z,7.30
2019-05-18T08:55:08.903Z,7.22
2019-05-18T08:57:39.397Z,7.05
2019-05-18T09:00:10.756Z,7.17
2019-05-18T09:02:40.133Z,7.90
2019-05-18T09:05:10.324Z,7.30
2019-05-18T09:10:08.895Z,6.33
2019-05-18T09:12:38.656Z,6.47
2019-05-18T09:15:08.720Z,7.00
2019-05-18T09:17:38.023Z,7.47
2019-05-18T09:20:07.881Z,7.35
2019-05-18T09:22:38.178Z,7.55
2019-05-18T09:25:07.945Z,7.72
2019-05-18T09:27:37.276Z,7.47
2019-05-18T09:30:10.815Z,6.60
2019-05-18T09:32:40.334Z,6.67
2019-05-18T09:35:10.145Z,7.07
2019-05-18T09:37:39.470Z,6.45
2019-05-18T09:40:09.109Z,5.78
2019-05-18T09:42:38.457Z,5.47
2019-05-18T09:45:08.702Z,5.30
2019-05-18T09:50:07.316Z,5.45
2019-05-18T09:52:44.909Z,5.78
2019-05-18T09:55:08.130Z,5.87
2019-05-18T09:57:37.458Z,5.08
2019-05-18T10:00:09.042Z,4.77
2019-05-18T10:02:38.500Z,5.10
2019-05-18T10:05:08.509Z,4.90
2019-05-18T10:07:37.825Z,4.30
2019-05-18T10:10:08.352Z,4.63
2019-05-18T10:12:38.088Z,5.30
2019-05-18T10:15:08.372Z,5.40
2019-05-18T10:17:37.752Z,6.97
2019-05-18T10:20:07.903Z,4.50
2019-05-18T10:22:51.175Z,4.90
2019-05-18T10:25:11.603Z,4.67
2019-05-18T10:27:43.847Z,4.00
2019-05-18T10:30:13.868Z,4.47
2019-05-18T10:32:43.215Z,3.72
2019-05-18T10:35:14.360Z,4.47
2019-05-18T10:37:43.760Z,3.87
2019-05-18T10:40:13.286Z,3.77
2019-05-18T10:42:42.647Z,4.25
2019-05-18T10:45:12.350Z,4.00
2019-05-18T10:47:42.651Z,3.50
2019-05-18T10:50:12.116Z,3.30
2019-05-18T10:52:41.429Z,2.72
2019-05-18T10:55:11.063Z,3.10
2019-05-18T10:57:40.396Z,2.60
2019-05-18T11:00:11.458Z,2.62
2019-05-18T11:02:41.009Z,2.08
2019-05-18T11:07:39.097Z,3.13
2019-05-18T11:10:10.498Z,2.08
2019-05-18T11:12:40.006Z,2.35
2019-05-18T11:15:11.409Z,2.47
2019-05-18T11:17:40.957Z,2.15
2019-05-18T11:20:12.474Z,1.50
2019-05-18T11:22:45.857Z,2.37
2019-05-18T11:25:17.710Z,2.60
2019-05-18T11:27:47.095Z,1.70
2019-05-18T11:30:21.331Z,1.20
2019-05-18T11:32:51.773Z,1.80
2019-05-18T11:35:21.575Z,1.17
2019-05-18T11:37:54.846Z,1.60
2019-05-18T11:40:24.956Z,1.77
2019-05-18T11:42:56.093Z,1.85
2019-05-18T11:45:27.228Z,1.37
2019-05-18T11:47:56.623Z,1.30
2019-05-18T11:50:26.503Z,1.65
2019-05-18T11:52:56.112Z,1.75
2019-05-18T11:55:25.516Z,1.57
2019-05-18T11:57:54.843Z,1.27
2019-05-18T12:02:52.904Z,1.40
2019-05-18T12:05:22.279Z,1.60
2019-05-18T12:07:51.592Z,2.30
2019-05-18T12:10:21.156Z,2.00
2019-05-18T12:12:50.666Z,2.27
2019-05-18T12:15:20.754Z,1.70
2019-05-18T12:17:50.126Z,1.60
2019-05-18T12:20:19.894Z,1.75
2019-05-18T12:22:49.289Z,1.80
2019-05-18T12:25:18.704Z,1.80
2019-05-18T12:27:48.216Z,1.72
2019-05-18T12:30:18.271Z,1.80
2019-05-18T12:32:47.587Z,2.20
2019-05-18T12:35:18.352Z,2.00
2019-05-18T12:37:47.668Z,2.35
2019-05-18T12:40:22.071Z,2.05
2019-05-18T12:42:51.575Z,1.92
2019-05-18T12:45:21.339Z,1.67
2019-05-18T12:47:50.636Z,1.50
2019-05-18T12:50:20.904Z,1.90
2019-05-18T12:52:50.349Z,1.65
2019-05-18T12:55:20.014Z,1.98
2019-05-18T12:57:49.375Z,1.80
2019-05-18T13:00:19.437Z,1.70
2019-05-18T13:02:48.827Z,2.02
2019-05-18T13:05:18.566Z,2.17
2019-05-18T13:10:17.548Z,2.22
2019-05-18T13:12:46.995Z,2.35
2019-05-18T13:15:16.876Z,1.95
2019-05-18T13:17:46.227Z,2.42
2019-05-18T13:20:16.171Z,3.47
2019-05-18T13:22:45.667Z,2.60
2019-05-18T13:25:15.891Z,1.70
2019-05-18T13:27:45.228Z,1.60
2019-05-18T13:30:14.909Z,0.90
2019-05-18T13:32:44.429Z,0.30
2019-05-18T13:35:15.081Z,0.40
2019-05-18T13:37:44.426Z,0.40
2019-05-18T13:40:14.381Z,0.60
2019-05-18T13:45:13.989Z,15.53
2019-05-18T13:47:44.388Z,0.40
2019-05-18T13:50:15.495Z,0.15
2019-05-18T13:52:44.829Z,0.50
2019-05-18T13:55:14.432Z,0.80
2019-05-18T13:57:43.817Z,4.97
2019-05-18T14:00:13.988Z,1.10
2019-05-18T14:05:13.498Z,0.98
2019-05-18T14:07:42.860Z,2.75
2019-05-18T14:10:13.467Z,2.87
2019-05-18T14:12:42.803Z,3.00
2019-05-18T14:15:14.125Z,6.37
2019-05-18T14:17:43.455Z,3.25
2019-05-18T14:20:14.991Z,3.70
2019-05-18T14:22:47.096Z,2.12
2019-05-18T14:25:20.323Z,1.72
2019-05-18T14:27:59.408Z,1.50
2019-05-18T14:30:33.242Z,1.40
2019-05-18T14:33:03.054Z,0.82
2019-05-18T14:35:33.502Z,0.85
2019-05-18T14:38:03.072Z,0.90
2019-05-18T14:40:32.367Z,0.95
2019-05-18T14:43:01.683Z,0.80
2019-05-18T14:45:30.996Z,0.80
2019-05-18T14:48:00.437Z,0.88
2019-05-18T14:50:29.766Z,0.77
2019-05-18T14:52:59.077Z,0.70
2019-05-18T14:55:33.645Z,0.90
2019-05-18T14:57:59.440Z,0.70
2019-05-18T15:00:28.808Z,1.47
2019-05-18T15:02:58.137Z,0.82
2019-05-18T15:05:27.458Z,0.70
2019-05-18T15:07:56.796Z,0.80
2019-05-18T15:10:26.277Z,0.60
2019-05-18T15:12:55.601Z,0.60
2019-05-18T15:15:25.137Z,0.60
2019-05-18T15:17:54.725Z,0.60
2019-05-18T15:20:24.091Z,0.70
2019-05-18T15:22:53.445Z,0.50
2019-05-18T15:25:22.902Z,0.70
2019-05-18T15:27:52.293Z,0.68
2019-05-18T15:30:22.233Z,0.72
2019-05-18T15:32:52.314Z,0.60
2019-05-18T15:35:21.712Z,0.60
2019-05-18T15:37:51.027Z,0.70
2019-05-18T15:40:20.964Z,0.90
2019-05-18T15:42:50.366Z,0.82
2019-05-18T15:45:19.937Z,3.20
2019-05-18T15:47:49.350Z,0.70
2019-05-18T15:50:19.209Z,0.80
2019-05-18T15:52:48.679Z,0.80
2019-05-18T15:55:18.159Z,0.70
2019-05-18T15:57:47.565Z,0.90
2019-05-18T16:00:17.292Z,1.00
2019-05-18T16:02:46.692Z,0.55
2019-05-18T16:05:16.739Z,0.68
2019-05-18T16:07:46.141Z,0.50
2019-05-18T16:10:15.905Z,0.70
2019-05-18T16:12:45.311Z,0.70
2019-05-18T16:15:15.092Z,0.50
2019-05-18T16:17:45.426Z,0.80
2019-05-18T16:20:15.512Z,0.80
2019-05-18T16:23:48.847Z,0.93
2019-05-18T16:26:21.736Z,0.88
2019-05-18T16:28:49.188Z,0.82
2019-05-18T16:31:18.484Z,0.98
2019-05-18T16:33:47.889Z,1.15
2019-05-18T16:36:17.279Z,0.88
2019-05-18T16:38:46.584Z,0.70
2019-05-18T16:41:15.906Z,0.75
2019-05-18T16:43:45.284Z,1.00
2019-05-18T16:46:14.619Z,0.70
2019-05-18T16:48:43.941Z,0.70
2019-05-18T16:51:13.275Z,0.78
2019-05-18T16:53:47.080Z,0.70
2019-05-18T16:56:14.662Z,1.00
2019-05-18T16:58:44.025Z,0.93
2019-05-18T17:01:13.364Z,0.68
2019-05-18T17:03:42.727Z,0.72
2019-05-18T17:06:12.052Z,0.70
2019-05-18T17:08:41.606Z,0.70
2019-05-18T17:11:10.953Z,0.63
2019-05-18T17:13:40.285Z,0.72
2019-05-18T17:16:09.606Z,0.72
2019-05-18T17:21:08.466Z,0.93
2019-05-18T17:23:37.789Z,1.00
2019-05-18T17:26:07.115Z,0.90
2019-05-18T17:28:36.445Z,1.05
2019-05-18T17:31:05.860Z,1.10
2019-05-18T17:33:36.290Z,1.10
2019-05-18T17:36:05.691Z,0.90
2019-05-18T17:38:35.043Z,0.90
2019-05-18T17:41:04.659Z,0.80
2019-05-18T17:43:35.078Z,1.05
2019-05-18T17:46:04.584Z,0.90
2019-05-18T17:48:34.057Z,1.17
2019-05-18T17:51:03.403Z,1.25
2019-05-18T17:53:32.774Z,1.30
2019-05-18T17:56:02.108Z,0.93
2019-05-18T17:58:31.476Z,1.05
2019-05-18T18:03:30.435Z,1.07
2019-05-18T18:05:59.759Z,1.07
2019-05-18T18:08:29.663Z,1.00
2019-05-18T18:10:58.993Z,1.10
2019-05-18T18:13:28.437Z,0.98
2019-05-18T18:15:57.770Z,1.07
2019-05-18T18:18:27.206Z,1.00
2019-05-18T18:20:56.599Z,1.10
2019-05-18T18:23:27.064Z,1.72
2019-05-18T18:28:25.109Z,2.40
2019-05-18T18:32:30.761Z,2.90
2019-05-18T18:35:00.156Z,3.08
2019-05-18T18:37:29.897Z,2.70
2019-05-18T18:39:59.221Z,3.15
2019-05-18T18:42:28.644Z,2.87
2019-05-18T18:44:58.194Z,2.92
2019-05-18T18:47:27.611Z,2.92
2019-05-18T18:49:57.061Z,2.85
2019-05-18T18:52:26.459Z,2.30
2019-05-18T18:54:55.787Z,2.62
2019-05-18T18:57:38.533Z,2.05
2019-05-18T18:59:57.089Z,2.15
2019-05-18T19:04:55.236Z,2.70
2019-05-18T19:07:24.556Z,2.62
2019-05-18T19:09:53.891Z,2.35
2019-05-18T19:12:23.199Z,3.02
2019-05-18T19:14:52.697Z,3.10
2019-05-18T19:17:22.001Z,2.85
2019-05-18T19:19:51.335Z,2.40
2019-05-18T19:22:20.715Z,2.70
2019-05-18T19:24:50.068Z,2.45
2019-05-18T19:27:19.568Z,2.42
2019-05-18T19:29:48.900Z,2.35
2019-05-18T19:32:18.341Z,2.52
2019-05-18T19:34:47.736Z,2.27
2019-05-18T19:37:17.054Z,2.05
2019-05-18T19:39:46.459Z,2.60
2019-05-18T19:42:15.839Z,2.42
2019-05-18T19:44:45.230Z,2.55
2019-05-18T19:47:14.549Z,2.55
2019-05-18T19:49:43.883Z,2.27
2019-05-18T19:52:13.178Z,2.62
2019-05-18T19:54:42.503Z,2.40
2019-05-18T19:57:11.896Z,2.35
2019-05-18T19:59:41.208Z,2.08
2019-05-18T20:02:10.679Z,2.17
2019-05-18T20:04:40.820Z,2.55
2019-05-18T20:07:10.284Z,2.05
2019-05-18T20:09:40.767Z,2.60
2019-05-18T20:12:10.115Z,2.25
2019-05-18T20:14:39.480Z,1.90
2019-05-18T20:17:08.901Z,2.15
2019-05-18T20:19:39.915Z,2.00
2019-05-18T20:22:09.639Z,2.90
2019-05-18T20:24:39.045Z,2.47
2019-05-18T20:27:08.342Z,2.35
2019-05-18T20:29:37.667Z,2.67
2019-05-18T20:32:07.036Z,2.87
2019-05-18T20:34:36.444Z,2.40
2019-05-18T20:37:05.754Z,2.55
2019-05-18T20:39:35.075Z,2.42
2019-05-18T20:42:04.387Z,2.85
2019-05-18T20:44:33.698Z,2.50
2019-05-18T20:47:03.029Z,2.37
2019-05-18T20:49:32.328Z,2.52
2019-05-18T20:52:01.649Z,2.50
2019-05-18T20:54:30.957Z,2.55
2019-05-18T20:57:00.293Z,2.20
2019-05-18T20:59:29.596Z,2.45
2019-05-18T21:01:58.933Z,3.80
2019-05-18T21:04:28.239Z,4.25
2019-05-18T21:06:58.640Z,5.65
2019-05-18T21:09:27.959Z,5.17
2019-05-18T21:11:57.290Z,4.55
2019-05-18T21:14:26.594Z,4.97
2019-05-18T21:16:55.990Z,4.35
2019-05-18T21:19:25.309Z,4.40
2019-05-18T21:21:54.685Z,4.33
2019-05-18T21:24:24.029Z,4.20
2019-05-18T21:26:53.334Z,4.10
2019-05-18T21:29:22.667Z,4.30
2019-05-18T21:31:52.039Z,3.77
2019-05-18T21:34:21.348Z,3.25
2019-05-18T21:36:50.695Z,3.37
2019-05-18T21:39:20.096Z,4.10
2019-05-18T21:41:49.400Z,3.20
2019-05-18T21:44:18.739Z,3.30
2019-05-18T21:46:48.085Z,3.17
2019-05-18T21:49:17.405Z,2.95
2019-05-18T21:51:46.736Z,3.05
2019-05-18T21:54:17.113Z,3.10
2019-05-18T21:56:46.437Z,3.30
2019-05-18T21:59:15.750Z,3.55
2019-05-18T22:01:45.147Z,3.02
2019-05-18T22:04:14.547Z,3.10
2019-05-18T22:06:43.944Z,3.27
2019-05-18T22:09:17.007Z,2.70
2019-05-18T22:11:46.421Z,3.00
2019-05-18T22:14:15.763Z,2.98
2019-05-18T22:16:45.061Z,3.00
2019-05-18T22:19:14.390Z,3.25
2019-05-18T22:21:43.792Z,3.40
2019-05-18T22:24:13.103Z,3.27
2019-05-18T22:26:42.541Z,3.52
2019-05-18T22:29:11.836Z,3.12
2019-05-18T22:31:41.178Z,3.20
2019-05-18T22:34:10.548Z,2.98
2019-05-18T22:36:39.868Z,3.10
2019-05-18T22:39:09.186Z,2.80
2019-05-18T22:41:38.802Z,2.62
2019-05-18T22:44:09.706Z,2.87
2019-05-18T22:46:39.031Z,2.60
2019-05-18T22:49:08.397Z,2.50
2019-05-18T22:51:37.734Z,2.62
2019-05-18T22:54:07.132Z,3.02
2019-05-18T22:56:36.539Z,2.40
2019-05-18T22:59:05.874Z,3.22
2019-05-18T23:01:35.200Z,2.92
2019-05-18T23:04:04.572Z,2.87
2019-05-18T23:06:33.912Z,2.70
2019-05-18T23:09:04.576Z,3.20
2019-05-18T23:11:34.015Z,2.65
2019-05-18T23:14:03.449Z,2.37
2019-05-18T23:16:32.779Z,2.67
2019-05-18T23:19:02.084Z,3.20
2019-05-18T23:21:31.461Z,3.05
2019-05-18T23:24:00.797Z,2.90
2019-05-18T23:26:30.178Z,3.42
2019-05-18T23:28:59.515Z,3.45
2019-05-18T23:31:28.804Z,3.35
2019-05-18T23:33:59.323Z,3.35
2019-05-18T23:36:28.797Z,3.10
2019-05-18T23:38:58.185Z,3.30
2019-05-18T23:41:27.608Z,3.12
2019-05-18T23:43:57.980Z,4.37
2019-05-18T23:46:27.300Z,4.83
2019-05-18T23:49:08.709Z,5.40
2019-05-18T23:51:27.640Z,6.05
2019-05-18T23:53:56.969Z,5.42
2019-05-18T23:56:26.265Z,5.50
2019-05-18T23:58:55.590Z,5.50
